Time;durP1;ratioP1;P1;durP2;ratioP2;P2;SDS_P1;SDS_P2;PMS_P1;PMS_P2;Temp;Humidity;BMP_temperature;BMP_pressure;BME280_temperature;BME280_humidity;BME280_pressure;Samples;Min_cycle;Max_cycle;Signal;HPM_P1;HPM_P2
2023/04/23 00:00:13;;;;;;;511.27;483.80;;;20.00;87.00;;;;;;5050275;28;20176;-66
2023/04/23 00:02:43;;;;;;;474.10;449.00;;;20.20;85.80;;;;;;5049441;28;20177;-67
2023/04/23 00:05:12;;;;;;;412.30;391.13;;;20.40;85.80;;;;;;5050811;28;20266;-66
2023/04/23 00:07:41;;;;;;;352.77;335.27;;;20.80;85.60;;;;;;5050297;28;20187;-67
2023/04/23 00:10:09;;;;;;;247.40;235.13;;;21.10;84.60;;;;;;5050306;28;20310;-66
2023/04/23 00:12:37;;;;;;;180.30;171.20;;;21.40;83.80;;;;;;5049301;28;20239;-69
2023/04/23 00:15:05;;;;;;;198.43;188.53;;;21.50;83.70;;;;;;5051001;28;20601;-67
2023/04/23 00:17:33;;;;;;;150.87;142.47;;;21.50;83.40;;;;;;5047110;28;20216;-68
2023/04/23 00:20:00;;;;;;;109.00;102.90;;;21.20;83.50;;;;;;5050755;28;20187;-68
2023/04/23 00:22:27;;;;;;;146.87;138.90;;;20.90;83.10;;;;;;5046307;28;20187;-68
2023/04/23 00:24:55;;;;;;;145.70;137.90;;;20.70;85.30;;;;;;5050858;28;20179;-70
2023/04/23 00:27:22;;;;;;;144.47;136.70;;;20.50;85.00;;;;;;5050712;28;20187;-69
2023/04/23 00:29:50;;;;;;;152.60;144.43;;;20.40;85.60;;;;;;5050223;28;20677;-69
2023/04/23 00:32:17;;;;;;;165.67;156.63;;;20.40;86.00;;;;;;5050336;28;20259;-69
2023/04/23 00:34:47;;;;;;;161.73;152.97;;;20.40;85.90;;;;;;5050845;28;20191;-69
2023/04/23 00:37:16;;;;;;;177.07;167.50;;;20.40;86.50;;;;;;5049635;28;20176;-67
2023/04/23 00:39:43;;;;;;;191.47;181.50;;;20.40;86.80;;;;;;5049505;28;20191;-66
2023/04/23 00:42:11;;;;;;;159.40;151.07;;;20.70;86.60;;;;;;5048898;28;20565;-67
2023/04/23 00:44:40;;;;;;;135.87;128.37;;;20.70;85.50;;;;;;5050380;28;20184;-65
2023/04/23 00:47:08;;;;;;;129.67;122.40;;;20.90;85.40;;;;;;5051088;28;20188;-65
2023/04/23 00:49:38;;;;;;;105.83;100.10;;;20.90;85.00;;;;;;5049990;28;20235;-65
2023/04/23 00:52:05;;;;;;;82.03;77.23;;;21.00;84.30;;;;;;5049705;28;20184;-65
2023/04/23 00:54:32;;;;;;;55.57;51.97;;;21.30;83.70;;;;;;5048135;28;20208;-64
2023/04/23 00:57:02;;;;;;;53.37;49.77;;;21.10;83.30;;;;;;5054086;28;20267;-64
2023/04/23 00:59:30;;;;;;;56.00;52.20;;;20.90;83.70;;;;;;5049578;28;20206;-65
2023/04/23 01:01:58;;;;;;;67.33;63.60;;;20.70;84.70;;;;;;5050930;28;20184;-65
2023/04/23 01:04:28;;;;;;;66.30;62.03;;;20.60;85.30;;;;;;5048548;28;20200;-66
2023/04/23 01:06:57;;;;;;;77.20;72.57;;;20.40;85.40;;;;;;5052208;28;20190;-66
2023/04/23 01:09:26;;;;;;;78.67;74.27;;;20.40;85.60;;;;;;5050874;28;20231;-65
2023/04/23 01:11:54;;;;;;;81.50;76.83;;;20.40;85.80;;;;;;5053796;28;20180;-65
2023/04/23 01:14:22;;;;;;;79.57;75.10;;;20.40;86.00;;;;;;5051243;28;20222;-66
2023/04/23 01:16:49;;;;;;;87.63;82.73;;;20.50;86.00;;;;;;5050594;28;20190;-64
2023/04/23 01:19:17;;;;;;;87.60;82.83;;;20.70;86.00;;;;;;5046527;28;20184;-64
2023/04/23 01:21:44;;;;;;;85.57;81.00;;;20.60;85.70;;;;;;5046514;28;20187;-65
2023/04/23 01:24:12;;;;;;;76.00;71.90;;;20.40;85.80;;;;;;5052396;28;20198;-66
2023/04/23 01:26:39;;;;;;;73.70;69.53;;;20.30;85.90;;;;;;5052895;28;20234;-65
2023/04/23 01:29:07;;;;;;;74.50;70.33;;;20.30;85.80;;;;;;5052249;28;20214;-64
2023/04/23 01:31:34;;;;;;;75.40;71.30;;;20.40;85.80;;;;;;5052477;28;20230;-65
2023/04/23 01:34:02;;;;;;;66.00;62.00;;;20.60;85.60;;;;;;5051338;28;20283;-66
2023/04/23 01:36:30;;;;;;;59.67;56.07;;;20.80;85.00;;;;;;5053500;28;20192;-66
2023/04/23 01:38:58;;;;;;;41.37;38.87;;;21.50;84.00;;;;;;5046061;28;20242;-68
2023/04/23 01:41:25;;;;;;;23.60;21.80;;;22.20;81.80;;;;;;5048484;28;20191;-66
2023/04/23 01:43:53;;;;;;;11.00;8.53;;;22.40;79.80;;;;;;5049263;28;20294;-67
2023/04/23 01:46:21;;;;;;;11.00;4.53;;;22.30;77.90;;;;;;5050328;28;20212;-66
2023/04/23 01:48:48;;;;;;;10.00;4.33;;;22.30;77.10;;;;;;5050011;28;20215;-65
2023/04/23 01:51:16;;;;;;;9.47;4.03;;;22.10;77.50;;;;;;5051764;28;20188;-66
2023/04/23 01:53:43;;;;;;;4.93;3.80;;;22.10;78.60;;;;;;5051670;28;20184;-65
2023/04/23 01:56:11;;;;;;;7.77;3.97;;;22.00;78.30;;;;;;5050099;28;20670;-65
2023/04/23 01:58:38;;;;;;;6.60;3.00;;;22.30;78.10;;;;;;5051185;28;20188;-67
2023/04/23 02:01:05;;;;;;;8.53;2.80;;;22.60;76.50;;;;;;5051030;28;20184;-68
2023/04/23 02:03:33;;;;;;;9.30;3.33;;;22.50;76.00;;;;;;5052052;28;20187;-68
2023/04/23 02:06:00;;;;;;;12.93;3.37;;;22.80;75.70;;;;;;5049410;28;20188;-67
2023/04/23 02:08:28;;;;;;;4.87;2.57;;;23.00;75.40;;;;;;5047693;28;20742;-67
2023/04/23 02:10:56;;;;;;;6.73;2.90;;;22.60;75.80;;;;;;5050652;28;20303;-67
2023/04/23 02:13:23;;;;;;;7.53;3.13;;;22.70;76.80;;;;;;5047758;28;20183;-66
2023/04/23 02:15:50;;;;;;;5.93;2.63;;;23.30;76.00;;;;;;5046615;28;20651;-67
2023/04/23 02:18:18;;;;;;;5.93;2.27;;;23.50;73.40;;;;;;5049071;28;20274;-67
2023/04/23 02:20:45;;;;;;;6.20;2.60;;;23.80;71.60;;;;;;5046614;28;20192;-67
2023/04/23 02:23:12;;;;;;;5.53;2.67;;;24.30;70.10;;;;;;5051028;28;20901;-70
2023/04/23 02:25:42;;;;;;;5.00;2.20;;;24.10;70.30;;;;;;5045825;28;20183;-67
2023/04/23 02:28:12;;;;;;;3.73;2.10;;;23.70;70.60;;;;;;5049121;28;20523;-66
2023/04/23 02:30:44;;;;;;;5.00;1.97;;;23.30;72.60;;;;;;5049457;28;20207;-67
2023/04/23 02:33:13;;;;;;;7.60;2.20;;;23.50;71.60;;;;;;5051165;28;20180;-67
2023/04/23 02:35:40;;;;;;;3.03;1.60;;;23.70;70.50;;;;;;5046794;28;20184;-69
2023/04/23 02:38:07;;;;;;;4.87;2.00;;;24.20;69.00;;;;;;5048929;28;20211;-68
2023/04/23 02:40:35;;;;;;;3.60;1.70;;;24.70;67.70;;;;;;5048358;28;20204;-67
2023/04/23 02:43:02;;;;;;;5.40;1.70;;;25.10;64.50;;;;;;5048379;28;20191;-68
2023/04/23 02:45:30;;;;;;;5.80;2.00;;;25.20;66.20;;;;;;5047640;28;20192;-66
2023/04/23 02:47:57;;;;;;;4.53;1.80;;;25.70;64.50;;;;;;5050848;28;20605;-67
2023/04/23 02:50:24;;;;;;;3.97;1.60;;;25.40;63.00;;;;;;5050079;28;20258;-67
2023/04/23 02:52:52;;;;;;;5.10;1.83;;;25.40;63.70;;;;;;5049495;28;20309;-67
2023/04/23 02:55:19;;;;;;;3.37;1.47;;;25.00;64.90;;;;;;5047365;28;20184;-65
2023/04/23 02:57:46;;;;;;;3.27;1.57;;;24.70;64.80;;;;;;5050834;28;20267;-67
2023/04/23 03:00:15;;;;;;;5.23;2.10;;;24.30;66.20;;;;;;5047110;28;20188;-67
2023/04/23 03:02:42;;;;;;;6.50;2.00;;;24.10;68.10;;;;;;5050430;28;20188;-66
2023/04/23 03:05:09;;;;;;;9.50;1.97;;;24.10;68.30;;;;;;5051750;28;20619;-66
2023/04/23 03:07:37;;;;;;;4.27;2.00;;;23.90;68.00;;;;;;5046835;28;20184;-67
2023/04/23 03:10:05;;;;;;;7.03;2.03;;;23.70;68.60;;;;;;5048034;28;20238;-68
2023/04/23 03:12:33;;;;;;;4.97;1.80;;;23.40;69.80;;;;;;5046682;28;20203;-65
2023/04/23 03:15:00;;;;;;;4.07;1.90;;;23.20;70.60;;;;;;5046665;28;20683;-68
2023/04/23 03:17:27;;;;;;;7.13;2.43;;;23.10;71.60;;;;;;5049000;28;20180;-68
2023/04/23 03:19:55;;;;;;;4.70;2.00;;;22.90;72.90;;;;;;5047381;28;20184;-67
2023/04/23 03:22:22;;;;;;;5.10;2.00;;;22.70;74.00;;;;;;5044889;28;20546;-66
2023/04/23 03:24:49;;;;;;;6.93;2.17;;;22.40;73.80;;;;;;5049487;28;20188;-67
2023/04/23 03:27:16;;;;;;;4.93;2.27;;;22.30;74.80;;;;;;5047196;28;20237;-66
2023/04/23 03:29:44;;;;;;;8.27;2.67;;;22.30;75.60;;;;;;5049373;28;20579;-66
2023/04/23 03:32:11;;;;;;;3.53;1.97;;;22.30;75.20;;;;;;5049638;28;20646;-66
2023/04/23 03:34:38;;;;;;;9.27;2.27;;;22.30;75.70;;;;;;5048578;28;20241;-66
2023/04/23 03:37:06;;;;;;;2.77;2.40;;;22.20;76.30;;;;;;5051731;28;20555;-66
2023/04/23 03:39:33;;;;;;;7.17;2.93;;;22.10;76.70;;;;;;5050643;28;20215;-66
2023/04/23 03:42:00;;;;;;;5.07;2.57;;;22.00;77.00;;;;;;5051676;28;20184;-66
2023/04/23 03:44:28;;;;;;;5.13;2.53;;;22.00;77.40;;;;;;5047786;28;20632;-67
2023/04/23 03:46:55;;;;;;;4.27;2.60;;;22.10;77.60;;;;;;5047811;28;20535;-65
2023/04/23 03:49:22;;;;;;;7.63;2.57;;;22.00;76.80;;;;;;5049875;28;20207;-66
2023/04/23 03:51:49;;;;;;;5.93;3.07;;;22.00;77.10;;;;;;5050077;28;20216;-67
2023/04/23 03:54:18;;;;;;;5.87;2.77;;;22.00;77.00;;;;;;5050156;28;20651;-66
2023/04/23 03:56:45;;;;;;;5.57;3.23;;;22.00;76.90;;;;;;5047576;28;20176;-66
2023/04/23 03:59:13;;;;;;;5.53;2.63;;;22.00;77.10;;;;;;5047931;28;20230;-66
2023/04/23 04:01:40;;;;;;;4.67;2.77;;;21.90;77.50;;;;;;5046624;28;20267;-67
2023/04/23 04:04:07;;;;;;;7.10;3.30;;;21.90;77.60;;;;;;5049601;28;20646;-67
2023/04/23 04:06:35;;;;;;;6.27;3.07;;;21.90;78.00;;;;;;5050351;28;20418;-66
2023/04/23 04:09:02;;;;;;;7.30;3.33;;;22.00;78.00;;;;;;5048755;28;20232;-66
2023/04/23 04:11:30;;;;;;;8.03;2.60;;;22.10;77.20;;;;;;5050911;28;20270;-66
2023/04/23 04:13:57;;;;;;;6.70;2.40;;;22.10;75.90;;;;;;5051416;28;20191;-67
2023/04/23 04:16:24;;;;;;;4.07;2.30;;;22.20;75.10;;;;;;5049963;28;20259;-67
2023/04/23 04:18:52;;;;;;;7.90;2.60;;;22.40;74.90;;;;;;5051444;28;20234;-66
2023/04/23 04:21:19;;;;;;;6.20;2.20;;;22.50;74.70;;;;;;5050109;28;20538;-67
2023/04/23 04:23:47;;;;;;;5.27;2.07;;;22.50;74.20;;;;;;5051044;28;20298;-68
2023/04/23 04:26:14;;;;;;;3.20;2.37;;;22.40;73.50;;;;;;5050812;28;20266;-66
2023/04/23 04:28:41;;;;;;;5.10;2.00;;;22.30;73.20;;;;;;5043834;28;20211;-67
2023/04/23 04:31:09;;;;;;;3.67;1.60;;;22.20;72.80;;;;;;5048218;28;20655;-66
2023/04/23 04:33:38;;;;;;;4.37;1.80;;;22.20;71.60;;;;;;5051871;28;20540;-68
2023/04/23 04:36:08;;;;;;;2.57;1.73;;;22.30;71.50;;;;;;5053573;28;20186;-67
2023/04/23 04:38:38;;;;;;;5.20;1.60;;;22.30;71.10;;;;;;5055000;28;20184;-65
2023/04/23 04:41:06;;;;;;;1.60;1.50;;;22.90;69.60;;;;;;5055004;28;20654;-67
2023/04/23 04:43:34;;;;;;;3.97;1.37;;;22.90;68.00;;;;;;5050789;28;20184;-66
2023/04/23 04:46:01;;;;;;;2.50;1.33;;;22.80;67.60;;;;;;5054828;28;20192;-67
2023/04/23 04:48:28;;;;;;;3.27;1.10;;;22.70;68.20;;;;;;5054743;28;20204;-66
2023/04/23 04:50:56;;;;;;;2.53;2.07;;;22.70;69.00;;;;;;5054422;28;20191;-68
2023/04/23 04:53:24;;;;;;;4.43;2.07;;;22.60;70.20;;;;;;5052453;28;20188;-68
2023/04/23 04:55:51;;;;;;;5.53;2.30;;;22.70;71.40;;;;;;5074740;28;20203;-66
2023/04/23 04:58:19;;;;;;;5.77;2.17;;;22.80;72.20;;;;;;5050998;28;20211;-66
2023/04/23 05:00:50;;;;;;;3.50;2.20;;;22.70;72.40;;;;;;5054635;28;20180;-67
2023/04/23 05:03:21;;;;;;;6.43;2.43;;;22.60;72.40;;;;;;5052310;28;20187;-65
2023/04/23 05:05:48;;;;;;;4.77;2.43;;;22.50;73.30;;;;;;5054106;28;20207;-67
2023/04/23 05:08:16;;;;;;;5.67;2.60;;;22.40;73.60;;;;;;5053816;28;20247;-67
2023/04/23 05:10:44;;;;;;;4.03;2.20;;;22.30;73.80;;;;;;5054392;28;20188;-67
2023/04/23 05:13:11;;;;;;;6.33;2.20;;;22.20;74.00;;;;;;5053309;28;20192;-65
2023/04/23 05:15:39;;;;;;;3.30;1.90;;;22.10;74.00;;;;;;5046993;28;20195;-67
2023/04/23 05:18:09;;;;;;;4.73;1.50;;;22.00;72.30;;;;;;5054110;28;20515;-67
2023/04/23 05:20:37;;;;;;;3.63;1.70;;;22.00;71.60;;;;;;5045160;28;20184;-66
2023/04/23 05:23:04;;;;;;;3.23;1.73;;;22.10;71.60;;;;;;5053159;28;20183;-66
2023/04/23 05:25:34;;;;;;;3.37;1.70;;;22.10;71.90;;;;;;5053049;28;20191;-67
2023/04/23 05:28:01;;;;;;;5.27;1.70;;;22.10;71.80;;;;;;5053607;28;20218;-66
2023/04/23 05:30:29;;;;;;;2.80;1.77;;;21.90;71.30;;;;;;5053139;28;20203;-67
2023/04/23 05:32:56;;;;;;;3.13;1.70;;;21.80;71.50;;;;;;5050812;28;20256;-67
2023/04/23 05:35:27;;;;;;;5.67;2.20;;;21.80;71.50;;;;;;5053597;28;20251;-67
2023/04/23 05:37:54;;;;;;;3.23;2.10;;;21.90;71.60;;;;;;5050197;28;20192;-67
2023/04/23 05:40:21;;;;;;;3.07;1.90;;;21.90;71.50;;;;;;5052265;28;20233;-67
2023/04/23 05:42:49;;;;;;;8.27;2.07;;;21.80;71.50;;;;;;5049774;28;20179;-67
2023/04/23 05:45:16;;;;;;;2.77;1.93;;;21.90;71.70;;;;;;5052009;28;20220;-67
2023/04/23 05:47:44;;;;;;;2.70;2.10;;;21.80;71.60;;;;;;5051869;28;20263;-67
2023/04/23 05:50:11;;;;;;;2.37;1.90;;;21.70;72.10;;;;;;5047482;28;20624;-67
2023/04/23 05:52:39;;;;;;;4.60;2.10;;;21.70;72.10;;;;;;5046112;28;20173;-67
2023/04/23 05:55:08;;;;;;;2.90;2.27;;;21.60;71.80;;;;;;5051877;28;20199;-68
2023/04/23 05:57:37;;;;;;;5.33;2.10;;;21.60;71.50;;;;;;5052271;28;20254;-67
2023/04/23 06:00:08;;;;;;;4.03;2.13;;;21.60;71.50;;;;;;5047110;28;20181;-67
2023/04/23 06:02:37;;;;;;;2.93;2.30;;;21.60;71.90;;;;;;5050447;28;20175;-68
2023/04/23 06:05:05;;;;;;;3.97;2.40;;;21.60;72.00;;;;;;5052496;28;20184;-66
2023/04/23 06:07:33;;;;;;;5.13;2.20;;;21.50;72.20;;;;;;5050000;28;20180;-67
2023/04/23 06:10:01;;;;;;;4.17;2.03;;;21.50;72.10;;;;;;5051915;28;20220;-67
2023/04/23 06:12:28;;;;;;;4.83;2.13;;;21.50;71.80;;;;;;5043912;28;20564;-67
2023/04/23 06:14:55;;;;;;;2.87;2.33;;;21.60;71.70;;;;;;5050092;28;20655;-67
2023/04/23 06:17:23;;;;;;;4.07;2.20;;;21.70;71.50;;;;;;5050571;28;20267;-67
2023/04/23 06:19:50;;;;;;;4.63;2.23;;;21.80;71.30;;;;;;5053111;28;20191;-67
2023/04/23 06:22:18;;;;;;;4.47;2.60;;;21.80;71.30;;;;;;5050676;28;20195;-67
2023/04/23 06:24:45;;;;;;;4.30;2.80;;;21.80;71.70;;;;;;5052671;28;20199;-65
2023/04/23 06:27:13;;;;;;;5.73;3.10;;;21.80;72.10;;;;;;5052619;28;20188;-66
2023/04/23 06:29:40;;;;;;;5.60;3.37;;;21.80;72.40;;;;;;5048628;28;20589;-67
2023/04/23 06:32:07;;;;;;;4.40;3.10;;;21.70;73.30;;;;;;5051741;28;20175;-66
2023/04/23 06:34:35;;;;;;;9.03;3.53;;;21.60;73.80;;;;;;5052027;28;21347;-67
2023/04/23 06:37:02;;;;;;;8.27;3.27;;;21.50;74.60;;;;;;5051037;28;20176;-67
2023/04/23 06:39:30;;;;;;;7.10;3.37;;;21.30;75.00;;;;;;5051656;28;20266;-66
2023/04/23 06:41:57;;;;;;;7.07;4.30;;;21.30;75.20;;;;;;5048704;28;20259;-66
2023/04/23 06:44:24;;;;;;;6.50;3.80;;;21.30;75.50;;;;;;5048460;28;20262;-66
2023/04/23 06:46:52;;;;;;;4.47;3.37;;;21.30;75.70;;;;;;5048283;28;20704;-66
2023/04/23 06:49:19;;;;;;;7.13;4.37;;;21.20;75.70;;;;;;5049683;28;20219;-66
2023/04/23 06:51:47;;;;;;;10.27;4.47;;;21.20;76.20;;;;;;5050683;28;20184;-68
2023/04/23 06:54:14;;;;;;;6.73;4.40;;;21.10;76.60;;;;;;5049075;28;20184;-66
2023/04/23 06:56:41;;;;;;;7.97;4.60;;;21.10;76.50;;;;;;5044602;28;20184;-67
2023/04/23 06:59:09;;;;;;;8.43;4.90;;;21.10;76.30;;;;;;5050054;28;20176;-67
2023/04/23 07:01:36;;;;;;;8.60;4.80;;;21.00;76.30;;;;;;5050442;28;20654;-67
2023/04/23 07:04:04;;;;;;;7.80;4.77;;;21.00;76.40;;;;;;5048792;28;20186;-67
2023/04/23 07:06:33;;;;;;;7.70;4.07;;;20.90;76.30;;;;;;5047811;28;20265;-67
2023/04/23 07:09:00;;;;;;;8.20;4.10;;;20.90;75.80;;;;;;5047021;28;20729;-68
2023/04/23 07:11:30;;;;;;;9.43;4.53;;;20.90;75.60;;;;;;5049117;28;20180;-67
2023/04/23 07:13:58;;;;;;;5.60;4.00;;;20.90;75.70;;;;;;5043150;28;20594;-68
2023/04/23 07:16:28;;;;;;;7.23;4.30;;;20.80;74.80;;;;;;5043858;28;20179;-67
2023/04/23 07:18:55;;;;;;;5.67;4.30;;;20.90;75.10;;;;;;5051256;28;20172;-67
2023/04/23 07:21:26;;;;;;;5.70;3.60;;;20.80;75.30;;;;;;5047536;28;20198;-68
2023/04/23 07:24:05;;;;;;;7.17;3.93;;;20.80;75.40;;;;;;5050154;28;20215;-67
2023/04/23 07:26:44;;;;;;;6.83;4.30;;;20.80;75.30;;;;;;5046677;28;20260;-67
2023/04/23 07:29:13;;;;;;;6.73;3.70;;;20.80;74.50;;;;;;5049870;28;20216;-66
2023/04/23 07:31:43;;;;;;;9.20;4.37;;;20.80;74.40;;;;;;5049072;28;20180;-67
2023/04/23 07:34:10;;;;;;;5.47;3.97;;;20.80;74.30;;;;;;5046233;28;20283;-66
2023/04/23 07:36:38;;;;;;;5.77;3.90;;;20.80;73.90;;;;;;5050156;28;20176;-67
2023/04/23 07:39:05;;;;;;;5.67;4.00;;;20.80;74.00;;;;;;5049918;28;20287;-68
2023/04/23 07:41:34;;;;;;;8.47;4.50;;;20.80;74.30;;;;;;5049752;28;20195;-66
2023/04/23 07:44:01;;;;;;;9.30;4.13;;;20.80;74.00;;;;;;5050670;28;20187;-67
2023/04/23 07:46:28;;;;;;;7.57;4.07;;;20.80;74.10;;;;;;5050796;28;20191;-68
2023/04/23 07:48:56;;;;;;;9.63;4.40;;;20.80;74.00;;;;;;5051356;28;20216;-67
2023/04/23 07:51:25;;;;;;;9.77;5.50;;;20.80;73.90;;;;;;5050485;28;20188;-68
2023/04/23 07:53:57;;;;;;;10.57;5.37;;;20.80;74.00;;;;;;5051774;28;20184;-68
2023/04/23 07:56:24;;;;;;;6.67;3.90;;;20.70;74.10;;;;;;5049586;28;20188;-68
2023/04/23 07:58:52;;;;;;;7.27;4.20;;;20.70;73.90;;;;;;5045999;28;20189;-67
2023/04/23 08:01:20;;;;;;;5.00;4.07;;;20.70;74.00;;;;;;5047629;28;20597;-67
2023/04/23 08:03:47;;;;;;;12.57;4.43;;;20.70;73.80;;;;;;5049257;28;20180;-66
2023/04/23 08:06:15;;;;;;;6.73;3.93;;;20.70;73.80;;;;;;5050510;28;20593;-67
2023/04/23 08:08:42;;;;;;;13.00;4.40;;;20.60;73.90;;;;;;5046327;28;20235;-67
2023/04/23 08:11:10;;;;;;;6.03;4.27;;;20.70;74.20;;;;;;5049620;28;20710;-67
2023/04/23 08:13:37;;;;;;;7.70;4.50;;;20.70;74.50;;;;;;5049793;28;20191;-67
2023/04/23 08:16:05;;;;;;;5.67;3.63;;;20.70;74.80;;;;;;5046046;28;20327;-67
2023/04/23 08:18:34;;;;;;;8.27;5.07;;;20.70;75.00;;;;;;5049994;28;20183;-69
2023/04/23 08:21:01;;;;;;;8.00;5.10;;;20.70;75.40;;;;;;5042969;28;20566;-68
2023/04/23 08:23:29;;;;;;;10.37;4.20;;;20.60;75.50;;;;;;5049622;28;20210;-67
2023/04/23 08:25:56;;;;;;;7.27;4.17;;;20.70;75.80;;;;;;5050455;28;20662;-66
2023/04/23 08:28:24;;;;;;;9.43;4.10;;;20.60;75.90;;;;;;5049524;28;20538;-68
2023/04/23 08:30:51;;;;;;;8.20;3.93;;;20.60;76.30;;;;;;5046208;28;20677;-66
2023/04/23 08:33:18;;;;;;;7.50;4.57;;;20.60;76.30;;;;;;5049246;28;20330;-66
2023/04/23 08:35:46;;;;;;;9.87;4.40;;;20.60;76.30;;;;;;5048899;28;20582;-68
2023/04/23 08:38:14;;;;;;;15.27;4.63;;;20.60;76.40;;;;;;5049220;28;20524;-67
2023/04/23 08:40:41;;;;;;;11.20;4.33;;;20.50;76.30;;;;;;5049729;28;20333;-67
2023/04/23 08:43:20;;;;;;;8.63;3.93;;;20.60;76.50;;;;;;5050032;28;20180;-67
2023/04/23 08:45:48;;;;;;;9.43;4.10;;;20.60;76.80;;;;;;5049057;28;20190;-67
2023/04/23 08:48:17;;;;;;;11.00;4.93;;;20.60;77.00;;;;;;5045736;28;20211;-67
2023/04/23 08:50:45;;;;;;;10.77;4.70;;;20.60;77.20;;;;;;5049097;28;20199;-66
2023/04/23 08:53:21;;;;;;;9.00;4.47;;;20.60;77.20;;;;;;5044844;28;20592;-66
2023/04/23 08:55:50;;;;;;;7.50;4.67;;;20.60;77.20;;;;;;5049044;28;20737;-67
2023/04/23 08:58:18;;;;;;;8.67;4.30;;;20.50;77.30;;;;;;5046718;28;20677;-67
2023/04/23 09:00:46;;;;;;;9.00;4.30;;;20.50;77.30;;;;;;5049840;28;20183;-66
2023/04/23 09:03:14;;;;;;;7.77;4.33;;;20.50;77.40;;;;;;5042413;28;20226;-67
2023/04/23 09:05:43;;;;;;;8.93;4.03;;;20.50;77.10;;;;;;5049484;28;20187;-67
2023/04/23 09:08:11;;;;;;;8.60;4.27;;;20.50;77.00;;;;;;5049507;28;20228;-66
2023/04/23 09:10:41;;;;;;;8.77;4.47;;;20.50;76.80;;;;;;5047083;28;20176;-68
2023/04/23 09:13:09;;;;;;;10.33;3.73;;;20.60;76.60;;;;;;5050289;28;20179;-67
2023/04/23 09:15:42;;;;;;;5.43;3.90;;;20.50;76.50;;;;;;5050338;28;21009;-67
2023/04/23 09:18:09;;;;;;;9.27;4.03;;;20.50;76.60;;;;;;5051598;28;20188;-66
2023/04/23 09:20:37;;;;;;;4.50;3.90;;;20.60;76.50;;;;;;5051566;28;20191;-66
2023/04/23 09:23:08;;;;;;;7.77;3.67;;;20.50;76.70;;;;;;5049328;28;20188;-66
2023/04/23 09:25:36;;;;;;;9.23;4.23;;;20.50;76.50;;;;;;5046471;28;20184;-66
2023/04/23 09:28:09;;;;;;;12.83;4.43;;;20.50;76.40;;;;;;5047569;28;20630;-66
2023/04/23 09:30:43;;;;;;;11.53;3.90;;;20.60;76.70;;;;;;5047336;28;20196;-66
2023/04/23 09:33:16;;;;;;;9.13;4.27;;;20.60;76.90;;;;;;5046787;28;20175;-67
2023/04/23 09:35:46;;;;;;;5.57;4.13;;;20.60;76.80;;;;;;5052559;28;20191;-67
2023/04/23 09:38:15;;;;;;;8.27;4.23;;;20.60;76.80;;;;;;5047405;28;20176;-66
2023/04/23 09:40:42;;;;;;;6.90;4.10;;;20.60;77.10;;;;;;5048691;28;20188;-65
2023/04/23 09:43:10;;;;;;;10.07;4.80;;;20.60;77.50;;;;;;5053161;28;20188;-67
2023/04/23 09:45:47;;;;;;;7.53;4.50;;;20.60;77.60;;;;;;5047171;28;20729;-66
2023/04/23 09:48:14;;;;;;;8.00;4.67;;;20.50;77.60;;;;;;5050137;28;20180;-66
2023/04/23 09:50:41;;;;;;;8.37;4.70;;;20.50;77.60;;;;;;5050496;28;20622;-66
2023/04/23 09:53:10;;;;;;;8.70;4.97;;;20.50;77.50;;;;;;5050364;28;20172;-65
2023/04/23 09:55:40;;;;;;;10.63;4.90;;;20.50;77.60;;;;;;5045831;28;20279;-66
2023/04/23 09:58:12;;;;;;;9.97;5.10;;;20.50;77.50;;;;;;5052404;28;20707;-66
2023/04/23 10:00:40;;;;;;;6.73;5.30;;;20.50;77.80;;;;;;5045856;28;20188;-67
2023/04/23 10:03:09;;;;;;;10.03;5.90;;;20.50;79.00;;;;;;5050724;28;20192;-66
2023/04/23 10:05:41;;;;;;;9.67;6.40;;;20.50;81.00;;;;;;5050923;28;20203;-66
2023/04/23 10:08:09;;;;;;;11.80;6.20;;;20.30;82.00;;;;;;5050411;28;20227;-66
2023/04/23 10:10:37;;;;;;;15.43;6.60;;;20.30;83.30;;;;;;5049413;28;20269;-66
2023/04/23 10:13:04;;;;;;;11.50;6.27;;;20.10;84.00;;;;;;5051069;28;20187;-67
2023/04/23 10:15:33;;;;;;;15.07;6.70;;;20.00;84.60;;;;;;5052497;28;20796;-67
2023/04/23 10:18:00;;;;;;;10.83;6.33;;;19.90;84.80;;;;;;5048884;28;20249;-66
2023/04/23 10:20:27;;;;;;;11.57;6.40;;;19.80;84.90;;;;;;5050145;28;20196;-65
2023/04/23 10:22:56;;;;;;;10.17;5.97;;;19.80;85.20;;;;;;5051114;28;20211;-67
2023/04/23 10:25:25;;;;;;;12.00;5.83;;;19.80;85.10;;;;;;5051037;28;20622;-66
2023/04/23 10:27:55;;;;;;;9.40;5.43;;;19.80;85.30;;;;;;5052351;28;20542;-66
2023/04/23 10:30:23;;;;;;;15.60;5.13;;;19.80;85.20;;;;;;5052436;28;20216;-66
2023/04/23 10:32:50;;;;;;;13.57;5.13;;;19.80;85.00;;;;;;5053407;28;20207;-67
2023/04/23 10:35:18;;;;;;;14.00;5.03;;;19.80;84.60;;;;;;5045635;28;20685;-65
2023/04/23 10:37:47;;;;;;;10.70;4.70;;;19.90;84.30;;;;;;5048722;28;20546;-65
2023/04/23 10:40:21;;;;;;;16.03;4.67;;;19.90;83.90;;;;;;5050464;28;20180;-65
2023/04/23 10:42:48;;;;;;;14.87;4.50;;;19.90;83.70;;;;;;5052867;28;20267;-65
2023/04/23 10:45:19;;;;;;;17.23;5.20;;;19.90;83.90;;;;;;5051262;28;20180;-65
2023/04/23 10:47:46;;;;;;;11.10;4.40;;;19.90;84.20;;;;;;5052520;28;20188;-66
2023/04/23 10:50:28;;;;;;;11.60;5.00;;;19.80;84.30;;;;;;5049120;28;20208;-67
2023/04/23 10:52:56;;;;;;;13.03;4.87;;;19.80;84.30;;;;;;5052436;28;20172;-66
2023/04/23 10:55:29;;;;;;;12.93;4.43;;;19.80;84.20;;;;;;5050800;28;20263;-66
2023/04/23 10:58:00;;;;;;;10.07;4.20;;;19.80;84.20;;;;;;5049416;28;20269;-67
2023/04/23 11:00:49;;;;;;;12.93;4.20;;;19.90;84.30;;;;;;5051268;28;20188;-65
2023/04/23 11:03:52;;;;;;;11.80;3.70;;;19.90;84.20;;;;;;5050705;28;20203;-66
2023/04/23 11:06:49;;;;;;;17.30;4.57;;;19.90;84.20;;;;;;5003704;28;20177;-66
2023/04/23 11:09:32;;;;;;;9.53;4.27;;;19.90;84.20;;;;;;5048891;28;20242;-67
2023/04/23 11:12:01;;;;;;;10.20;4.23;;;19.80;84.10;;;;;;5052050;28;20206;-67
2023/04/23 11:14:36;;;;;;;12.73;4.00;;;19.80;83.70;;;;;;5049612;28;20189;-65
2023/04/23 11:17:07;;;;;;;12.77;3.90;;;19.80;83.50;;;;;;5051326;28;20566;-69
2023/04/23 11:19:40;;;;;;;9.87;3.83;;;19.80;83.70;;;;;;5048199;28;20225;-66
2023/04/23 11:22:08;;;;;;;12.83;3.63;;;19.80;83.60;;;;;;5047486;28;20238;-66
2023/04/23 11:24:46;;;;;;;9.97;3.77;;;19.80;83.50;;;;;;5048521;28;20321;-66
2023/04/23 11:27:18;;;;;;;15.13;3.73;;;19.90;83.30;;;;;;5050572;28;20237;-66
2023/04/23 11:29:46;;;;;;;9.63;4.47;;;19.90;83.20;;;;;;5048606;28;20621;-66
2023/04/23 11:32:17;;;;;;;9.27;3.77;;;19.90;83.20;;;;;;5050684;28;20184;-66
2023/04/23 11:34:46;;;;;;;10.93;4.10;;;19.90;83.20;;;;;;5050413;28;20666;-67
2023/04/23 11:37:15;;;;;;;10.87;4.03;;;19.90;83.30;;;;;;5051165;28;20207;-66
2023/04/23 11:39:44;;;;;;;11.60;3.93;;;19.80;83.30;;;;;;5049095;28;20184;-66
2023/04/23 11:42:13;;;;;;;9.97;3.40;;;19.90;83.10;;;;;;5050485;28;20196;-67
2023/04/23 11:44:42;;;;;;;10.50;3.87;;;20.00;82.70;;;;;;5049898;28;20222;-66
2023/04/23 11:47:13;;;;;;;8.97;3.60;;;20.00;82.70;;;;;;5047600;28;20640;-66
2023/04/23 11:49:42;;;;;;;12.13;3.77;;;20.00;82.60;;;;;;5044127;28;20223;-66
2023/04/23 11:52:10;;;;;;;14.37;4.07;;;20.00;82.40;;;;;;5046948;28;20709;-66
2023/04/23 11:54:41;;;;;;;11.03;3.43;;;20.00;82.40;;;;;;5051727;28;20188;-67
2023/04/23 11:57:09;;;;;;;19.70;3.67;;;20.00;82.60;;;;;;5046156;28;20183;-67
2023/04/23 11:59:36;;;;;;;16.53;4.67;;;20.00;82.80;;;;;;5046966;28;20184;-67
2023/04/23 12:02:03;;;;;;;14.93;4.13;;;19.90;82.70;;;;;;5051284;28;20195;-67
2023/04/23 12:04:32;;;;;;;9.97;3.63;;;19.80;82.80;;;;;;5050835;28;20176;-67
2023/04/23 12:07:00;;;;;;;11.20;3.17;;;19.80;82.60;;;;;;5050427;28;20195;-67
2023/04/23 12:09:28;;;;;;;9.40;3.30;;;19.80;82.40;;;;;;5049007;28;21385;-67
2023/04/23 12:11:59;;;;;;;11.43;3.30;;;19.80;82.20;;;;;;5052546;28;20191;-66
2023/04/23 12:14:28;;;;;;;12.53;3.53;;;19.80;81.50;;;;;;5050350;28;20658;-67
2023/04/23 12:16:57;;;;;;;9.00;2.93;;;19.80;80.80;;;;;;5044967;28;20233;-66
2023/04/23 12:19:29;;;;;;;12.77;3.60;;;19.80;80.60;;;;;;5048653;28;20172;-67
2023/04/23 12:22:02;;;;;;;10.27;2.87;;;19.70;80.00;;;;;;5045980;28;20642;-68
2023/04/23 12:24:44;;;;;;;9.90;2.87;;;19.70;79.90;;;;;;5048571;28;20314;-67
2023/04/23 12:27:18;;;;;;;11.50;3.00;;;19.70;79.50;;;;;;5049744;28;20207;-67
2023/04/23 12:29:46;;;;;;;10.27;2.90;;;19.80;78.90;;;;;;5055808;28;20578;-67
2023/04/23 12:32:15;;;;;;;5.23;2.50;;;19.90;78.30;;;;;;5050583;28;20310;-67
2023/04/23 12:34:53;;;;;;;6.70;2.60;;;20.00;77.80;;;;;;5047622;28;20188;-67
2023/04/23 12:37:30;;;;;;;10.40;2.53;;;20.00;77.70;;;;;;5049199;28;20180;-68
2023/04/23 12:39:58;;;;;;;6.30;2.50;;;20.00;77.50;;;;;;5049869;28;20176;-67
2023/04/23 12:42:25;;;;;;;8.57;3.00;;;20.00;77.30;;;;;;5049885;28;20691;-67
2023/04/23 12:44:56;;;;;;;6.23;2.90;;;20.00;77.10;;;;;;5050727;28;20179;-65
2023/04/23 12:47:23;;;;;;;8.07;2.60;;;20.00;76.60;;;;;;5045542;28;20184;-67